createdAt,value
2019-02-24T00:02:02.082Z,56.56
2019-02-24T00:04:51.869Z,55.48
2019-02-24T00:07:41.701Z,56.00
2019-02-24T00:10:31.504Z,56.30
2019-02-24T00:13:21.326Z,55.02
2019-02-24T00:16:11.144Z,55.25
2019-02-24T00:19:00.964Z,55.77
2019-02-24T00:21:50.734Z,55.84
2019-02-24T00:24:21.691Z,56.66
2019-02-24T00:27:11.492Z,57.13
2019-02-24T00:30:01.303Z,57.29
2019-02-24T00:32:51.058Z,57.27
2019-02-24T00:35:40.864Z,56.71
2019-02-24T00:38:30.649Z,57.38
2019-02-24T00:41:20.487Z,57.41
2019-02-24T00:44:10.259Z,57.41
2019-02-24T00:47:00.084Z,56.79
2019-02-24T00:49:49.873Z,57.18
2019-02-24T00:52:39.665Z,57.07
2019-02-24T00:55:30.710Z,56.18
2019-02-24T00:58:16.121Z,56.02
2019-02-24T01:00:56.842Z,56.07
2019-02-24T01:06:42.130Z,56.23
2019-02-24T01:09:31.955Z,56.27
2019-02-24T01:12:21.794Z,56.10
2019-02-24T01:15:11.618Z,56.14
2019-02-24T01:18:01.443Z,56.14
2019-02-24T01:20:51.273Z,56.07
2019-02-24T01:23:21.675Z,56.06
2019-02-24T01:26:11.481Z,55.82
2019-02-24T01:29:01.291Z,56.06
2019-02-24T01:31:51.173Z,56.09
2019-02-24T01:34:41.002Z,55.99
2019-02-24T01:37:30.859Z,55.85
2019-02-24T01:40:20.695Z,56.11
2019-02-24T01:43:10.470Z,56.41
2019-02-24T01:45:40.899Z,55.63
2019-02-24T01:48:30.684Z,55.74
2019-02-24T01:51:20.519Z,56.01
2019-02-24T01:54:10.381Z,56.12
2019-02-24T01:57:00.260Z,56.10
2019-02-24T01:59:50.104Z,56.18
2019-02-24T02:02:40.000Z,56.63
2019-02-24T02:05:29.815Z,55.61
2019-02-24T02:08:19.619Z,56.76
2019-02-24T02:11:09.614Z,56.99
2019-02-24T02:13:59.422Z,57.60
2019-02-24T02:16:49.270Z,57.43
2019-02-24T02:19:39.079Z,56.23
2019-02-24T02:22:28.883Z,56.54
2019-02-24T02:25:18.680Z,56.13
2019-02-24T02:28:08.510Z,56.26
2019-02-24T02:30:58.351Z,56.26
2019-02-24T02:33:48.140Z,55.87
2019-02-24T02:36:37.963Z,55.83
2019-02-24T02:39:27.778Z,55.35
2019-02-24T02:42:17.570Z,55.80
2019-02-24T02:44:47.978Z,55.72
2019-02-24T02:47:37.771Z,55.75
2019-02-24T02:50:27.598Z,55.42
2019-02-24T02:53:17.397Z,55.20
2019-02-24T02:55:47.888Z,55.41
2019-02-24T02:58:37.660Z,55.70
2019-02-24T03:01:08.083Z,55.82
2019-02-24T03:03:57.873Z,56.31
2019-02-24T03:09:40.111Z,56.14
2019-02-24T03:12:29.921Z,56.15
2019-02-24T03:15:19.725Z,55.81
2019-02-24T03:18:09.562Z,55.43
2019-02-24T03:20:59.366Z,55.55
2019-02-24T03:23:49.213Z,56.22
2019-02-24T03:26:39.003Z,55.64
2019-02-24T03:29:28.782Z,55.16
2019-02-24T03:32:18.595Z,55.29
2019-02-24T03:35:08.434Z,54.97
2019-02-24T03:37:58.246Z,54.56
2019-02-24T03:40:28.640Z,54.73
2019-02-24T03:43:18.459Z,55.94
2019-02-24T03:46:08.262Z,56.00
2019-02-24T03:48:58.069Z,56.46
2019-02-24T03:51:47.859Z,55.65
2019-02-24T03:54:37.679Z,55.77
2019-02-24T03:57:27.553Z,54.83
2019-02-24T04:00:17.433Z,55.24
2019-02-24T04:02:47.865Z,55.80
2019-02-24T04:05:37.685Z,55.60
2019-02-24T04:08:27.488Z,54.92
2019-02-24T04:10:57.883Z,54.42
2019-02-24T04:13:47.694Z,54.34
2019-02-24T04:16:37.499Z,54.53
2019-02-24T04:19:27.332Z,54.85
2019-02-24T04:22:17.209Z,55.37
2019-02-24T04:25:09.494Z,55.54
2019-02-24T04:27:59.262Z,55.36
2019-02-24T04:30:49.150Z,54.89
2019-02-24T04:33:19.649Z,55.32
2019-02-24T04:36:09.453Z,55.57
2019-02-24T04:38:39.982Z,55.27
2019-02-24T04:41:29.792Z,55.94
2019-02-24T04:44:20.545Z,55.66
2019-02-24T04:47:10.350Z,54.36
2019-02-24T04:50:00.263Z,54.37
2019-02-24T04:52:50.044Z,53.96
2019-02-24T04:55:39.876Z,54.76
2019-02-24T04:58:10.303Z,55.75
2019-02-24T05:01:00.160Z,56.16
2019-02-24T05:03:50.041Z,55.25
2019-02-24T05:09:29.182Z,53.68
2019-02-24T05:12:18.958Z,53.51
2019-02-24T05:14:49.371Z,53.35
2019-02-24T05:17:38.984Z,53.50
2019-02-24T05:20:28.790Z,53.62
2019-02-24T05:23:18.587Z,53.33
2019-02-24T05:26:08.582Z,52.86
2019-02-24T05:28:58.765Z,53.54
2019-02-24T05:31:48.566Z,53.91
2019-02-24T05:34:38.421Z,52.86
2019-02-24T05:37:08.849Z,52.26
2019-02-24T05:39:39.278Z,51.83
2019-02-24T05:42:29.476Z,51.95
2019-02-24T05:45:19.269Z,51.91
2019-02-24T05:48:09.094Z,51.90
2019-02-24T05:51:17.912Z,52.52
2019-02-24T05:53:48.504Z,54.07
2019-02-24T05:56:38.275Z,52.86
2019-02-24T05:59:28.440Z,52.99
2019-02-24T06:02:18.197Z,53.68
2019-02-24T06:04:48.629Z,55.00
2019-02-24T06:07:19.038Z,55.65
2019-02-24T06:10:09.335Z,54.53
2019-02-24T06:12:40.082Z,52.33
2019-02-24T06:15:29.936Z,51.94
2019-02-24T06:18:19.747Z,51.12
2019-02-24T06:21:09.590Z,54.70
2019-02-24T06:23:40.031Z,56.94
2019-02-24T06:26:30.279Z,57.69
2019-02-24T06:29:12.738Z,58.19
2019-02-24T06:32:02.566Z,58.05
2019-02-24T06:34:52.354Z,57.61
2019-02-24T06:37:42.154Z,57.78
2019-02-24T06:40:31.969Z,57.74
2019-02-24T06:43:22.278Z,56.59
2019-02-24T06:46:12.094Z,56.18
2019-02-24T06:49:01.914Z,56.77
2019-02-24T06:51:51.697Z,57.15
2019-02-24T06:54:41.503Z,57.24
2019-02-24T06:57:31.382Z,57.32
2019-02-24T07:00:21.210Z,57.16
2019-02-24T07:03:11.526Z,57.47
2019-02-24T07:05:42.171Z,57.26
2019-02-24T07:08:31.962Z,56.73
2019-02-24T07:11:21.775Z,56.10
2019-02-24T07:14:11.536Z,54.72
2019-02-24T07:17:01.361Z,53.49
2019-02-24T07:19:51.155Z,54.24
2019-02-24T07:22:40.950Z,53.80
2019-02-24T07:25:30.732Z,52.22
2019-02-24T07:28:01.212Z,52.83
2019-02-24T07:30:50.969Z,52.13
2019-02-24T07:33:40.789Z,51.76
2019-02-24T07:36:30.549Z,51.39
2019-02-24T07:39:22.135Z,51.68
2019-02-24T07:42:12.314Z,51.12
2019-02-24T07:45:21.056Z,51.36
2019-02-24T07:48:11.324Z,51.20
2019-02-24T07:51:01.193Z,50.24
2019-02-24T07:53:51.010Z,50.06
2019-02-24T07:56:40.835Z,49.55
2019-02-24T07:59:30.649Z,50.15
2019-02-24T08:02:20.449Z,49.95
2019-02-24T08:05:10.253Z,49.66
2019-02-24T08:08:00.087Z,49.28
2019-02-24T08:10:49.900Z,49.24
2019-02-24T08:13:39.726Z,49.52
2019-02-24T08:16:29.551Z,49.64
2019-02-24T08:19:19.410Z,49.63
2019-02-24T08:22:09.272Z,50.40
2019-02-24T08:24:59.067Z,50.89
2019-02-24T08:27:48.892Z,51.71
2019-02-24T08:30:41.645Z,52.10
2019-02-24T08:33:21.527Z,51.83
2019-02-24T08:36:11.377Z,51.99
2019-02-24T08:39:01.141Z,50.80
2019-02-24T08:41:31.665Z,49.50
2019-02-24T08:44:22.269Z,49.72
2019-02-24T08:46:59.226Z,48.79
2019-02-24T08:49:49.148Z,47.99
2019-02-24T08:52:38.933Z,47.38
2019-02-24T08:55:28.766Z,46.51
2019-02-24T08:58:19.165Z,46.30
2019-02-24T09:01:09.011Z,46.11
2019-02-24T09:03:58.845Z,44.04
2019-02-24T09:06:29.340Z,43.83
2019-02-24T09:08:59.844Z,43.91
2019-02-24T09:11:30.304Z,43.58
2019-02-24T09:14:00.707Z,43.34
2019-02-24T09:16:50.545Z,43.14
2019-02-24T09:19:40.324Z,42.77
2019-02-24T09:22:22.582Z,42.14
2019-02-24T09:24:55.256Z,42.14
2019-02-24T09:27:25.655Z,42.32
2019-02-24T09:30:26.881Z,42.08
2019-02-24T09:32:58.698Z,42.08
2019-02-24T09:35:30.721Z,41.92
2019-02-24T09:38:31.901Z,41.24
2019-02-24T09:41:03.421Z,41.24
2019-02-24T09:43:53.405Z,40.74
2019-02-24T09:46:54.645Z,40.44
2019-02-24T09:49:38.472Z,40.26
2019-02-24T09:52:09.237Z,40.26
2019-02-24T09:54:59.037Z,40.57
2019-02-24T09:58:00.695Z,40.43
2019-02-24T10:00:31.534Z,40.43
2019-02-24T10:03:03.629Z,40.83
2019-02-24T10:06:13.533Z,40.67
2019-02-24T10:08:43.959Z,39.00
2019-02-24T10:11:14.348Z,38.31
2019-02-24T10:13:44.574Z,38.78
2019-02-24T10:16:34.382Z,37.34
2019-02-24T10:19:25.136Z,37.28
2019-02-24T10:22:15.042Z,37.14
2019-02-24T10:24:45.831Z,36.96
2019-02-24T10:27:35.657Z,37.53
2019-02-24T10:30:44.541Z,38.27
2019-02-24T10:33:34.497Z,38.63
2019-02-24T10:36:05.016Z,38.09
2019-02-24T10:38:37.005Z,37.03
2019-02-24T10:41:26.902Z,37.38
2019-02-24T10:43:57.399Z,37.47
2019-02-24T10:46:27.793Z,37.62
2019-02-24T10:49:17.562Z,37.91
2019-02-24T10:51:47.988Z,36.71
2019-02-24T10:54:18.408Z,35.49
2019-02-24T10:56:48.899Z,35.77
2019-02-24T10:59:38.686Z,36.18
2019-02-24T11:02:28.485Z,36.31
2019-02-24T11:05:18.643Z,36.89
2019-02-24T11:08:08.526Z,36.84
2019-02-24T11:10:40.546Z,34.91
2019-02-24T11:13:30.379Z,35.54
2019-02-24T11:16:20.196Z,33.12
2019-02-24T11:18:52.242Z,33.79
2019-02-24T11:21:22.800Z,33.38
2019-02-24T11:23:53.251Z,32.17
2019-02-24T11:26:23.680Z,32.41
2019-02-24T11:29:13.532Z,31.85
2019-02-24T11:32:03.314Z,33.18
2019-02-24T11:34:33.722Z,32.92
2019-02-24T11:37:04.120Z,32.14
2019-02-24T11:39:34.553Z,32.37
2019-02-24T11:42:24.695Z,32.39
2019-02-24T11:44:55.176Z,31.47
2019-02-24T11:47:25.620Z,31.43
2019-02-24T11:50:15.496Z,30.67
2019-02-24T11:53:05.422Z,29.17
2019-02-24T11:55:36.337Z,29.31
2019-02-24T11:58:28.223Z,30.36
2019-02-24T12:01:18.497Z,29.21
2019-02-24T12:04:08.793Z,26.07
2019-02-24T12:06:39.233Z,26.77
2019-02-24T12:09:29.136Z,25.61
2019-02-24T12:11:59.564Z,24.89
2019-02-24T12:14:49.407Z,24.80
2019-02-24T12:17:19.842Z,24.82
2019-02-24T12:19:50.285Z,25.48
2019-02-24T12:22:40.205Z,25.26
2019-02-24T12:25:29.952Z,25.57
2019-02-24T12:28:00.379Z,26.89
2019-02-24T12:30:30.919Z,28.14
2019-02-24T12:33:03.379Z,29.24
2019-02-24T12:35:53.202Z,31.15
2019-02-24T12:38:23.641Z,32.29
2019-02-24T12:40:54.194Z,31.32
2019-02-24T12:46:50.186Z,32.68
2019-02-24T12:49:40.053Z,32.86
2019-02-24T12:52:30.013Z,32.89
2019-02-24T12:55:19.941Z,32.69
2019-02-24T12:57:50.431Z,33.50
2019-02-24T13:00:21.189Z,34.89
2019-02-24T13:03:11.106Z,35.40
2019-02-24T13:06:01.066Z,35.57
2019-02-24T13:08:50.954Z,36.11
2019-02-24T13:11:21.423Z,35.46
2019-02-24T13:14:11.491Z,35.53
2019-02-24T13:19:47.531Z,34.72
2019-02-24T13:22:37.351Z,34.25
2019-02-24T13:25:27.200Z,33.36
2019-02-24T13:28:16.991Z,32.56
2019-02-24T13:30:47.399Z,33.12
2019-02-24T13:33:37.353Z,32.64
2019-02-24T13:36:28.227Z,32.15
2019-02-24T13:39:18.033Z,30.77
2019-02-24T13:42:07.927Z,28.07
2019-02-24T13:44:39.945Z,26.87
2019-02-24T13:47:10.344Z,27.52
2019-02-24T13:50:00.517Z,27.23
2019-02-24T13:52:50.403Z,27.44
2019-02-24T13:55:40.182Z,28.43
2019-02-24T13:58:41.773Z,28.95
2019-02-24T14:01:12.328Z,28.95
2019-02-24T14:04:02.151Z,28.79
2019-02-24T14:06:51.938Z,28.81
2019-02-24T14:09:22.372Z,28.96
2019-02-24T14:12:12.146Z,29.64
2019-02-24T14:15:02.451Z,30.12
2019-02-24T14:17:52.298Z,30.86
2019-02-24T14:20:42.186Z,31.33
2019-02-24T14:23:32.220Z,32.20
2019-02-24T14:26:02.782Z,32.57
2019-02-24T14:28:33.318Z,33.05
2019-02-24T14:31:23.121Z,33.42
2019-02-24T14:34:12.988Z,33.45
2019-02-24T14:36:45.036Z,34.07
2019-02-24T14:39:34.899Z,34.50
2019-02-24T14:42:05.273Z,34.75
2019-02-24T14:44:55.197Z,35.12
2019-02-24T14:47:44.964Z,35.72
2019-02-24T14:50:15.440Z,36.00
2019-02-24T14:53:05.592Z,35.59
2019-02-24T14:55:36.190Z,36.11
2019-02-24T15:04:36.189Z,36.61
2019-02-24T15:07:26.017Z,36.78
2019-02-24T15:10:16.331Z,37.29
2019-02-24T15:13:06.127Z,37.64
2019-02-24T15:15:56.030Z,37.54
2019-02-24T15:18:45.895Z,37.87
2019-02-24T15:21:16.342Z,38.32
2019-02-24T15:24:06.172Z,38.09
2019-02-24T15:26:56.059Z,38.22
2019-02-24T15:29:45.895Z,38.71
2019-02-24T15:32:16.359Z,38.26
2019-02-24T15:35:06.283Z,38.53
2019-02-24T15:37:56.101Z,38.90
2019-02-24T15:40:45.954Z,38.96
2019-02-24T15:43:16.551Z,39.27
2019-02-24T15:45:47.174Z,39.57
2019-02-24T15:48:37.016Z,40.08
2019-02-24T15:51:26.883Z,39.98
2019-02-24T15:53:57.343Z,40.17
2019-02-24T15:56:47.132Z,40.24
2019-02-24T15:59:17.512Z,40.56
2019-02-24T16:01:47.972Z,41.11
2019-02-24T16:04:18.402Z,41.44
2019-02-24T16:07:08.248Z,41.48
2019-02-24T16:09:58.043Z,41.63
2019-02-24T16:12:47.945Z,41.64
2019-02-24T16:15:18.434Z,42.10
2019-02-24T16:17:48.994Z,42.06
2019-02-24T16:20:21.813Z,42.47
2019-02-24T16:22:52.260Z,42.76
2019-02-24T16:25:42.056Z,43.23
2019-02-24T16:28:31.966Z,43.87
2019-02-24T16:31:02.378Z,44.23
2019-02-24T16:33:52.235Z,44.42
2019-02-24T16:36:42.154Z,44.38
2019-02-24T16:39:32.012Z,44.52
2019-02-24T16:42:02.442Z,45.14
2019-02-24T16:44:52.593Z,45.14
2019-02-24T16:47:23.265Z,45.48
2019-02-24T16:50:25.128Z,45.62
2019-02-24T16:52:56.152Z,45.62
2019-02-24T16:55:46.056Z,46.23
2019-02-24T16:58:35.898Z,46.23
2019-02-24T17:01:06.373Z,46.61
2019-02-24T17:03:56.229Z,46.94
2019-02-24T17:06:46.029Z,46.75
2019-02-24T17:09:35.927Z,46.76
2019-02-24T17:12:06.363Z,46.78
2019-02-24T17:14:56.158Z,46.54
2019-02-24T17:17:46.913Z,46.34
2019-02-24T17:20:18.230Z,46.36
2019-02-24T17:22:49.196Z,46.31
2019-02-24T17:25:19.777Z,46.15
2019-02-24T17:27:50.221Z,45.95
2019-02-24T17:30:40.041Z,46.03
2019-02-24T17:33:32.080Z,45.95
2019-02-24T17:36:15.182Z,46.40
2019-02-24T17:39:17.937Z,46.11
2019-02-24T17:41:48.391Z,46.11
2019-02-24T17:44:38.259Z,46.14
2019-02-24T17:47:28.134Z,46.13
2019-02-24T17:49:58.623Z,46.30
2019-02-24T17:52:29.025Z,45.72
2019-02-24T17:55:02.020Z,45.97
2019-02-24T17:57:34.100Z,45.06
2019-02-24T18:03:38.791Z,45.13
2019-02-24T18:06:07.436Z,45.52
2019-02-24T18:08:57.337Z,45.38
2019-02-24T18:11:47.148Z,45.19
2019-02-24T18:14:36.978Z,45.14
2019-02-24T18:17:07.430Z,45.08
2019-02-24T18:19:57.344Z,44.27
2019-02-24T18:22:47.222Z,44.22
2019-02-24T18:25:37.075Z,43.87
2019-02-24T18:28:26.920Z,44.02
2019-02-24T18:30:57.403Z,43.17
2019-02-24T18:33:48.540Z,42.92
2019-02-24T18:36:30.379Z,42.58
2019-02-24T18:39:20.288Z,42.98
2019-02-24T18:42:10.233Z,42.18
2019-02-24T18:44:40.880Z,42.15
2019-02-24T18:47:11.369Z,42.37
2019-02-24T18:50:01.222Z,42.25
2019-02-24T18:52:51.112Z,41.31
2019-02-24T18:55:40.954Z,40.86
2019-02-24T18:58:31.902Z,40.63
2019-02-24T19:01:02.375Z,41.03
2019-02-24T19:03:57.810Z,41.02
2019-02-24T19:06:38.961Z,40.15
2019-02-24T19:09:10.080Z,40.01
2019-02-24T19:11:59.972Z,40.54
2019-02-24T19:14:30.512Z,40.70
2019-02-24T19:17:01.212Z,40.22
2019-02-24T19:19:51.015Z,40.14
2019-02-24T19:22:21.562Z,40.03
2019-02-24T19:25:11.459Z,39.38
2019-02-24T19:27:42.233Z,39.75
2019-02-24T19:30:32.047Z,39.88
2019-02-24T19:33:21.930Z,39.12
2019-02-24T19:35:52.350Z,39.26
2019-02-24T19:38:42.177Z,39.12
2019-02-24T19:41:32.940Z,39.00
2019-02-24T19:44:03.368Z,39.30
2019-02-24T19:46:53.258Z,39.04
2019-02-24T19:49:23.674Z,38.72
2019-02-24T19:51:54.370Z,38.00
2019-02-24T19:57:34.650Z,38.00
2019-02-24T20:00:06.137Z,37.92
2019-02-24T20:02:56.056Z,37.71
2019-02-24T20:05:27.204Z,37.76
2019-02-24T20:07:58.208Z,38.17
2019-02-24T20:10:48.096Z,38.09
2019-02-24T20:13:37.942Z,38.27
2019-02-24T20:16:08.491Z,38.08
2019-02-24T20:18:58.663Z,38.49
2019-02-24T20:21:30.914Z,37.56
2019-02-24T20:24:01.466Z,37.91
2019-02-24T20:26:32.118Z,37.92
2019-02-24T20:29:21.960Z,37.60
2019-02-24T20:31:52.369Z,37.77
2019-02-24T20:34:42.202Z,37.13
2019-02-24T20:37:31.978Z,37.22
2019-02-24T20:40:02.394Z,36.70
2019-02-24T20:42:52.285Z,36.16
2019-02-24T20:45:42.192Z,36.22
2019-02-24T20:51:28.969Z,36.25
2019-02-24T20:54:01.151Z,37.07
2019-02-24T20:56:31.700Z,36.85
2019-02-24T20:59:02.153Z,36.58
2019-02-24T21:01:52.011Z,36.38
2019-02-24T21:05:01.271Z,36.54
2019-02-24T21:07:33.349Z,36.51
2019-02-24T21:10:42.064Z,36.62
2019-02-24T21:13:32.022Z,36.50
2019-02-24T21:16:22.409Z,35.85
2019-02-24T21:19:12.350Z,35.36
2019-02-24T21:22:02.297Z,35.27
2019-02-24T21:24:33.015Z,34.54
2019-02-24T21:27:03.470Z,34.14
2019-02-24T21:29:53.328Z,33.58
2019-02-24T21:32:29.544Z,33.46
2019-02-24T21:35:19.448Z,33.30
2019-02-24T21:38:09.311Z,33.27
2019-02-24T21:40:59.463Z,32.78
2019-02-24T21:43:49.300Z,32.66
2019-02-24T21:46:39.136Z,33.17
2019-02-24T21:49:29.066Z,32.47
2019-02-24T21:52:18.948Z,31.50
2019-02-24T21:54:49.360Z,31.65
2019-02-24T21:57:39.210Z,30.72
2019-02-24T22:00:29.087Z,31.00
2019-02-24T22:03:19.858Z,30.89
2019-02-24T22:05:50.411Z,30.11
2019-02-24T22:08:40.221Z,29.04
2019-02-24T22:11:30.070Z,29.66
2019-02-24T22:14:19.902Z,29.46
2019-02-24T22:16:50.315Z,29.84
2019-02-24T22:19:40.123Z,29.82
2019-02-24T22:22:29.888Z,29.60
2019-02-24T22:25:00.283Z,28.80
2019-02-24T22:27:30.791Z,28.81
2019-02-24T22:30:01.215Z,28.56
2019-02-24T22:32:31.638Z,28.48
2019-02-24T22:35:02.125Z,28.54
2019-02-24T22:37:52.104Z,28.66
2019-02-24T22:40:22.507Z,28.90
2019-02-24T22:43:12.322Z,28.98
2019-02-24T22:45:43.134Z,29.38
2019-02-24T22:48:32.952Z,29.15
2019-02-24T22:51:04.947Z,28.83
2019-02-24T22:53:35.394Z,28.69
2019-02-24T22:56:25.125Z,29.05
2019-02-24T22:58:55.544Z,29.44
2019-02-24T23:01:45.087Z,29.15
2019-02-24T23:04:34.916Z,29.07
2019-02-24T23:07:06.917Z,29.17
2019-02-24T23:09:37.390Z,29.56
2019-02-24T23:12:27.148Z,29.51
2019-02-24T23:15:16.982Z,29.70
2019-02-24T23:17:47.369Z,29.56
2019-02-24T23:20:17.744Z,29.80
2019-02-24T23:22:48.119Z,30.03
2019-02-24T23:25:37.930Z,30.25
2019-02-24T23:28:10.005Z,30.25
2019-02-24T23:30:59.899Z,30.07
2019-02-24T23:33:30.341Z,30.33
2019-02-24T23:36:20.143Z,30.19
2019-02-24T23:42:32.451Z,30.37
2019-02-24T23:45:22.602Z,30.70
2019-02-24T23:47:53.274Z,30.51
2019-02-24T23:50:43.075Z,30.70
2019-02-24T23:53:32.896Z,30.44
2019-02-24T23:56:03.298Z,30.42
2019-02-24T23:58:53.074Z,30.33
